createdAt,value
2016-08-23T00:00:51.757Z,0
2016-08-23T00:01:51.747Z,0
2016-08-23T00:02:52.301Z,0
2016-08-23T00:03:51.749Z,0
2016-08-23T00:04:52.272Z,0
2016-08-23T00:05:51.744Z,0
2016-08-23T00:06:51.702Z,0
2016-08-23T00:07:51.726Z,0
2016-08-23T00:08:51.721Z,0
2016-08-23T00:09:51.826Z,0
2016-08-23T00:10:51.826Z,0
2016-08-23T00:11:51.801Z,0
2016-08-23T00:12:51.777Z,0
2016-08-23T00:13:51.778Z,0
2016-08-23T00:14:52.263Z,0
2016-08-23T00:15:51.708Z,0
2016-08-23T00:16:51.712Z,0
2016-08-23T00:17:51.710Z,0
2016-08-23T00:18:51.719Z,0
2016-08-23T00:19:51.706Z,0
2016-08-23T00:20:51.700Z,0
2016-08-23T00:21:51.767Z,0
2016-08-23T00:22:51.713Z,0
2016-08-23T00:23:52.224Z,0
2016-08-23T00:24:51.724Z,0
2016-08-23T00:25:51.711Z,0
2016-08-23T00:26:51.650Z,0
2016-08-23T00:27:51.678Z,0
2016-08-23T00:28:51.666Z,0
2016-08-23T00:29:51.705Z,0
2016-08-23T00:30:51.760Z,0
2016-08-23T00:31:51.693Z,0
2016-08-23T00:32:51.705Z,0
2016-08-23T00:33:51.700Z,0
2016-08-23T00:34:51.712Z,0
2016-08-23T00:35:51.723Z,0
2016-08-23T00:36:51.717Z,0
2016-08-23T00:37:51.760Z,0
2016-08-23T00:38:51.767Z,0
2016-08-23T00:39:51.651Z,0
2016-08-23T00:40:51.658Z,0
2016-08-23T00:41:51.690Z,0
2016-08-23T00:42:51.705Z,0
2016-08-23T00:43:51.708Z,0
2016-08-23T00:44:51.716Z,0
2016-08-23T00:45:51.725Z,0
2016-08-23T00:46:51.701Z,0
2016-08-23T00:47:52.353Z,0
2016-08-23T00:48:51.713Z,0
2016-08-23T00:49:51.721Z,0
2016-08-23T00:50:51.584Z,0
2016-08-23T00:51:51.645Z,0
2016-08-23T00:52:51.630Z,0
2016-08-23T00:53:51.668Z,0
2016-08-23T00:54:52.401Z,0
2016-08-23T00:55:51.647Z,0
2016-08-23T00:56:51.669Z,0
2016-08-23T00:57:51.732Z,0
2016-08-23T00:58:51.699Z,0
2016-08-23T00:59:51.572Z,0
2016-08-23T01:00:51.540Z,0
2016-08-23T01:01:51.529Z,0
2016-08-23T01:02:51.649Z,0
2016-08-23T01:03:51.620Z,0
2016-08-23T01:04:51.613Z,0
2016-08-23T01:05:51.631Z,0
2016-08-23T01:06:51.687Z,0
2016-08-23T01:07:51.674Z,0
2016-08-23T01:08:51.500Z,0
2016-08-23T01:09:51.489Z,0
2016-08-23T01:10:51.531Z,0
2016-08-23T01:11:52.350Z,0
2016-08-23T01:12:51.643Z,0
2016-08-23T01:13:51.513Z,0
2016-08-23T01:14:51.641Z,0
2016-08-23T01:15:51.519Z,0
2016-08-23T01:16:51.603Z,0
2016-08-23T01:17:51.619Z,0
2016-08-23T01:18:51.506Z,0
2016-08-23T01:19:51.520Z,0
2016-08-23T01:20:51.500Z,0
2016-08-23T01:21:51.537Z,0
2016-08-23T01:22:51.506Z,0
2016-08-23T01:23:51.584Z,0
2016-08-23T01:24:51.496Z,0
2016-08-23T01:25:51.644Z,0
2016-08-23T01:26:51.516Z,0
2016-08-23T01:27:51.504Z,0
2016-08-23T01:28:51.449Z,0
2016-08-23T01:29:51.449Z,0
2016-08-23T01:30:51.465Z,0
2016-08-23T01:31:51.612Z,0
2016-08-23T01:32:51.588Z,0
2016-08-23T01:33:51.491Z,0
2016-08-23T01:34:51.507Z,0
2016-08-23T01:35:51.486Z,0
2016-08-23T01:36:51.486Z,0
2016-08-23T01:37:51.503Z,0
2016-08-23T01:38:51.463Z,0
2016-08-23T01:39:51.449Z,0
2016-08-23T01:40:51.454Z,0
2016-08-23T01:41:51.438Z,0
2016-08-23T01:42:51.449Z,0
2016-08-23T01:43:51.438Z,0
2016-08-23T01:44:51.611Z,0
2016-08-23T01:45:51.305Z,0
2016-08-23T01:46:51.333Z,0
2016-08-23T01:47:51.427Z,0
2016-08-23T01:48:51.446Z,0
2016-08-23T01:49:51.911Z,0
2016-08-23T01:50:51.296Z,0
2016-08-23T01:51:51.434Z,0
2016-08-23T01:52:51.482Z,0
2016-08-23T01:53:51.416Z,0
2016-08-23T01:54:51.281Z,0
2016-08-23T01:55:51.295Z,0
2016-08-23T01:56:51.265Z,0
2016-08-23T01:57:51.420Z,0
2016-08-23T01:58:51.305Z,0
2016-08-23T01:59:51.282Z,0
2016-08-23T02:00:51.269Z,0
2016-08-23T02:01:51.272Z,0
2016-08-23T02:02:51.275Z,0
2016-08-23T02:03:51.278Z,0
2016-08-23T02:04:52.629Z,0
2016-08-23T02:05:51.250Z,0
2016-08-23T02:06:51.283Z,0
2016-08-23T02:07:51.246Z,0
2016-08-23T02:08:51.266Z,0
2016-08-23T02:09:51.265Z,0
2016-08-23T02:10:51.245Z,0
2016-08-23T02:11:51.261Z,0
2016-08-23T02:12:51.847Z,0
2016-08-23T02:13:51.241Z,0
2016-08-23T02:14:51.239Z,0
2016-08-23T02:15:51.113Z,0
2016-08-23T02:16:51.572Z,0
2016-08-23T02:17:51.112Z,0
2016-08-23T02:18:51.098Z,0
2016-08-23T02:19:51.233Z,0
2016-08-23T02:20:51.247Z,0
2016-08-23T02:21:51.113Z,0
2016-08-23T02:22:51.118Z,0
2016-08-23T02:23:51.083Z,0
2016-08-23T02:24:51.236Z,0
2016-08-23T02:25:51.076Z,0
2016-08-23T02:26:51.104Z,0
2016-08-23T02:27:51.094Z,0
2016-08-23T02:28:51.078Z,0
2016-08-23T02:29:51.113Z,0
2016-08-23T02:30:51.053Z,0
2016-08-23T02:31:51.054Z,0
2016-08-23T02:32:51.265Z,0
2016-08-23T02:33:51.068Z,0
2016-08-23T02:34:51.757Z,0
2016-08-23T02:35:51.042Z,0
2016-08-23T02:36:51.045Z,0
2016-08-23T02:37:51.074Z,0
2016-08-23T02:38:51.043Z,0
2016-08-23T02:39:51.021Z,0
2016-08-23T02:40:51.735Z,0
2016-08-23T02:41:51.055Z,0
2016-08-23T02:42:51.031Z,0
2016-08-23T02:43:51.054Z,0
2016-08-23T02:44:51.055Z,0
2016-08-23T02:45:51.013Z,0
2016-08-23T02:46:51.013Z,0
2016-08-23T02:47:51.018Z,0
2016-08-23T02:48:51.011Z,0
2016-08-23T02:49:51.020Z,0
2016-08-23T02:50:51.004Z,0
2016-08-23T02:51:51.009Z,0
2016-08-23T02:52:51.045Z,0
2016-08-23T02:53:51.022Z,0
2016-08-23T02:54:50.993Z,0
2016-08-23T02:55:50.978Z,0
2016-08-23T02:56:50.963Z,0
2016-08-23T02:57:51.033Z,0
2016-08-23T02:58:51.019Z,0
2016-08-23T02:59:50.983Z,0
2016-08-23T03:00:51.738Z,0
2016-08-23T03:01:50.970Z,0
2016-08-23T03:02:50.989Z,0
2016-08-23T03:03:51.368Z,0
2016-08-23T03:04:50.998Z,0
2016-08-23T03:05:50.957Z,0
2016-08-23T03:06:50.942Z,0
2016-08-23T03:07:51.019Z,0
2016-08-23T03:08:50.980Z,0
2016-08-23T03:09:50.987Z,0
2016-08-23T03:10:50.966Z,0
2016-08-23T03:11:50.933Z,0
2016-08-23T03:12:50.948Z,0
2016-08-23T03:13:51.675Z,0
2016-08-23T03:14:50.947Z,0
2016-08-23T03:15:50.940Z,0
2016-08-23T03:16:50.911Z,0
2016-08-23T03:17:50.923Z,0
2016-08-23T03:18:50.937Z,0
2016-08-23T03:19:50.899Z,0
2016-08-23T03:20:50.927Z,0
2016-08-23T03:21:50.910Z,0
2016-08-23T03:22:50.907Z,0
2016-08-23T03:23:50.976Z,0
2016-08-23T03:24:50.880Z,0
2016-08-23T03:25:50.893Z,0
2016-08-23T03:26:50.878Z,0
2016-08-23T03:27:50.882Z,0
2016-08-23T03:28:51.685Z,0
2016-08-23T03:29:50.865Z,0
2016-08-23T03:30:50.903Z,0
2016-08-23T03:31:50.904Z,0
2016-08-23T03:32:50.850Z,0
2016-08-23T03:33:50.851Z,0
2016-08-23T03:34:50.845Z,0
2016-08-23T03:35:50.844Z,0
2016-08-23T03:36:50.843Z,0
2016-08-23T03:37:50.864Z,0
2016-08-23T03:38:50.874Z,0
2016-08-23T03:39:50.897Z,0
2016-08-23T03:40:50.963Z,0
2016-08-23T03:41:50.865Z,0
2016-08-23T03:42:50.867Z,0
2016-08-23T03:43:50.846Z,0
2016-08-23T03:44:50.836Z,0
2016-08-23T03:45:50.831Z,4
2016-08-23T03:46:50.806Z,4
2016-08-23T03:47:50.807Z,0
2016-08-23T03:48:51.035Z,4
2016-08-23T03:49:50.811Z,4
2016-08-23T03:50:52.918Z,4
2016-08-23T03:51:50.776Z,4
2016-08-23T03:52:50.780Z,4
2016-08-23T03:53:50.810Z,8
2016-08-23T03:54:50.763Z,8
2016-08-23T03:55:50.759Z,12
2016-08-23T03:56:50.797Z,12
2016-08-23T03:57:50.769Z,12
2016-08-23T03:58:50.804Z,12
2016-08-23T03:59:50.793Z,12
2016-08-23T04:00:50.797Z,16
2016-08-23T04:01:50.774Z,16
2016-08-23T04:02:50.749Z,20
2016-08-23T04:03:50.757Z,24
2016-08-23T04:04:50.756Z,28
2016-08-23T04:05:50.835Z,32
2016-08-23T04:06:51.615Z,32
2016-08-23T04:07:50.744Z,36
2016-08-23T04:08:50.731Z,40
2016-08-23T04:09:50.754Z,48
2016-08-23T04:10:50.736Z,52
2016-08-23T04:11:50.784Z,60
2016-08-23T04:12:50.736Z,64
2016-08-23T04:13:50.717Z,76
2016-08-23T04:14:50.724Z,80
2016-08-23T04:15:50.712Z,88
2016-08-23T04:16:50.744Z,88
2016-08-23T04:17:50.732Z,96
2016-08-23T04:18:50.722Z,100
2016-08-23T04:19:51.587Z,104
2016-08-23T04:20:50.729Z,112
2016-08-23T04:21:50.713Z,120
2016-08-23T04:22:50.693Z,128
2016-08-23T04:23:50.713Z,136
2016-08-23T04:24:50.707Z,144
2016-08-23T04:25:50.698Z,160
2016-08-23T04:26:50.721Z,176
2016-08-23T04:27:50.687Z,192
2016-08-23T04:28:50.722Z,204
2016-08-23T04:29:50.697Z,216
2016-08-23T04:30:50.651Z,224
2016-08-23T04:31:50.658Z,232
2016-08-23T04:32:51.513Z,244
2016-08-23T04:33:50.655Z,272
2016-08-23T04:34:50.658Z,304
2016-08-23T04:35:50.676Z,328
2016-08-23T04:36:50.654Z,344
2016-08-23T04:37:50.657Z,368
2016-08-23T04:38:50.617Z,384
2016-08-23T04:39:50.617Z,392
2016-08-23T04:40:50.637Z,396
2016-08-23T04:41:51.561Z,400
2016-08-23T04:42:50.655Z,416
2016-08-23T04:43:50.638Z,436
2016-08-23T04:44:50.634Z,472
2016-08-23T04:45:50.643Z,524
2016-08-23T04:46:50.612Z,580
2016-08-23T04:47:50.620Z,592
2016-08-23T04:48:50.595Z,620
2016-08-23T04:49:50.607Z,636
2016-08-23T04:50:50.603Z,668
2016-08-23T04:51:50.609Z,680
2016-08-23T04:52:50.573Z,692
2016-08-23T04:53:50.585Z,712
2016-08-23T04:54:50.600Z,736
2016-08-23T04:55:50.609Z,776
2016-08-23T04:56:50.573Z,824
2016-08-23T04:57:50.564Z,828
2016-08-23T04:58:50.564Z,832
2016-08-23T04:59:50.772Z,836
2016-08-23T05:00:50.551Z,864
2016-08-23T05:01:50.556Z,892
2016-08-23T05:02:50.652Z,940
2016-08-23T05:03:50.557Z,984
2016-08-23T05:04:50.543Z,1036
2016-08-23T05:05:50.557Z,1088
2016-08-23T05:06:50.537Z,1124
2016-08-23T05:07:50.525Z,1156
2016-08-23T05:08:50.629Z,1212
2016-08-23T05:09:50.545Z,1240
2016-08-23T05:10:50.511Z,1232
2016-08-23T05:11:50.515Z,1240
2016-08-23T05:12:50.561Z,1252
2016-08-23T05:13:50.524Z,1264
2016-08-23T05:14:50.615Z,1292
2016-08-23T05:15:50.516Z,1300
2016-08-23T05:16:50.550Z,1348
2016-08-23T05:17:50.516Z,1408
2016-08-23T05:18:50.505Z,1480
2016-08-23T05:19:50.506Z,1560
2016-08-23T05:20:51.340Z,1636
2016-08-23T05:21:50.481Z,1712
2016-08-23T05:22:50.485Z,1804
2016-08-23T05:23:51.515Z,1888
2016-08-23T05:24:50.482Z,1940
2016-08-23T05:25:50.492Z,1968
2016-08-23T05:26:50.489Z,2012
2016-08-23T05:27:50.492Z,2024
2016-08-23T05:28:50.521Z,2068
2016-08-23T05:29:50.476Z,2160
2016-08-23T05:30:50.457Z,2216
2016-08-23T05:31:50.510Z,2236
2016-08-23T05:32:51.442Z,2336
2016-08-23T05:33:50.471Z,2340
2016-08-23T05:34:50.497Z,2388
2016-08-23T05:35:50.477Z,2480
2016-08-23T05:36:50.438Z,2616
2016-08-23T05:37:50.456Z,2680
2016-08-23T05:38:50.516Z,2688
2016-08-23T05:39:50.460Z,2680
2016-08-23T05:40:50.419Z,2716
2016-08-23T05:41:50.425Z,2764
2016-08-23T05:42:50.424Z,2800
2016-08-23T05:43:50.413Z,2816
2016-08-23T05:44:50.449Z,2800
2016-08-23T05:45:50.410Z,2804
2016-08-23T05:46:50.412Z,2792
2016-08-23T05:47:50.410Z,2632
2016-08-23T05:48:50.403Z,2472
2016-08-23T05:49:50.425Z,2352
2016-08-23T05:50:50.396Z,2236
2016-08-23T05:51:50.395Z,2088
2016-08-23T05:52:50.405Z,1896
2016-08-23T05:53:50.413Z,1588
2016-08-23T05:54:50.402Z,1372
2016-08-23T05:55:50.400Z,1332
2016-08-23T05:56:51.123Z,1324
2016-08-23T05:57:50.407Z,1380
2016-08-23T05:58:50.379Z,1440
2016-08-23T05:59:50.386Z,1496
2016-08-23T06:00:50.386Z,1468
2016-08-23T06:01:50.385Z,1316
2016-08-23T06:02:50.380Z,1252
2016-08-23T06:03:50.357Z,1224
2016-08-23T06:04:50.361Z,1216
2016-08-23T06:05:50.365Z,1220
2016-08-23T06:06:50.368Z,1220
2016-08-23T06:07:50.359Z,1220
2016-08-23T06:08:50.372Z,1220
2016-08-23T06:09:50.357Z,1224
2016-08-23T06:10:50.343Z,1232
2016-08-23T06:11:50.343Z,1228
2016-08-23T06:12:50.349Z,1224
2016-08-23T06:13:50.366Z,1224
2016-08-23T06:14:50.333Z,1228
2016-08-23T06:15:50.333Z,1228
2016-08-23T06:16:50.343Z,1228
2016-08-23T06:17:50.354Z,1228
2016-08-23T06:18:50.343Z,1240
2016-08-23T06:19:50.334Z,1236
2016-08-23T06:20:50.313Z,1240
2016-08-23T06:21:50.305Z,1248
2016-08-23T06:22:50.324Z,1252
2016-08-23T06:23:51.235Z,1256
2016-08-23T06:24:50.317Z,1256
2016-08-23T06:25:50.315Z,1264
2016-08-23T06:26:50.310Z,1272
2016-08-23T06:27:50.289Z,1276
2016-08-23T06:28:51.182Z,1280
2016-08-23T06:29:50.293Z,1280
2016-08-23T06:30:50.280Z,1284
2016-08-23T06:31:50.308Z,1292
2016-08-23T06:32:50.291Z,1296
2016-08-23T06:33:50.264Z,1288
2016-08-23T06:34:50.292Z,1288
2016-08-23T06:35:50.287Z,1288
2016-08-23T06:36:50.271Z,1300
2016-08-23T06:37:50.265Z,1316
2016-08-23T06:38:50.270Z,1396
2016-08-23T06:39:50.273Z,1460
2016-08-23T06:40:51.404Z,2040
2016-08-23T06:41:50.292Z,2832
2016-08-23T06:42:51.219Z,3224
2016-08-23T06:43:50.260Z,3192
2016-08-23T06:44:50.249Z,3904
2016-08-23T06:45:50.243Z,8324
2016-08-23T06:46:50.232Z,7880
2016-08-23T06:47:51.152Z,7636
2016-08-23T06:48:50.236Z,6304
2016-08-23T06:49:50.225Z,7496
2016-08-23T06:50:51.158Z,5484
2016-08-23T06:51:50.231Z,6708
2016-08-23T06:52:50.224Z,8260
2016-08-23T06:53:50.287Z,4476
2016-08-23T06:54:50.218Z,3420
2016-08-23T06:55:50.202Z,2984
2016-08-23T06:56:50.209Z,2660
2016-08-23T06:57:50.221Z,2456
2016-08-23T06:58:50.210Z,2240
2016-08-23T06:59:50.199Z,2120
2016-08-23T07:00:50.211Z,2196
2016-08-23T07:01:50.204Z,2164
2016-08-23T07:02:50.199Z,2132
2016-08-23T07:03:50.181Z,2056
2016-08-23T07:04:50.189Z,1956
2016-08-23T07:05:50.182Z,1912
2016-08-23T07:06:50.178Z,1876
2016-08-23T07:07:50.185Z,1860
2016-08-23T07:08:50.232Z,1820
2016-08-23T07:09:50.177Z,1840
2016-08-23T07:10:50.169Z,1820
2016-08-23T07:11:50.291Z,1800
2016-08-23T07:12:50.170Z,1796
2016-08-23T07:13:50.210Z,1784
2016-08-23T07:14:50.883Z,1772
2016-08-23T07:15:50.169Z,1744
2016-08-23T07:16:50.994Z,1728
2016-08-23T07:17:50.191Z,1740
2016-08-23T07:18:50.181Z,1712
2016-08-23T07:19:50.161Z,1692
2016-08-23T07:20:50.170Z,1676
2016-08-23T07:21:50.172Z,1676
2016-08-23T07:22:50.173Z,1672
2016-08-23T07:23:50.167Z,1676
2016-08-23T07:24:50.392Z,1684
2016-08-23T07:25:50.189Z,1692
2016-08-23T07:26:50.181Z,1704
2016-08-23T07:27:50.984Z,1716
2016-08-23T07:28:50.186Z,1740
2016-08-23T07:29:50.164Z,1756
2016-08-23T07:30:50.175Z,1768
2016-08-23T07:31:50.158Z,1780
2016-08-23T07:32:50.198Z,1792
2016-08-23T07:33:50.174Z,1792
2016-08-23T07:34:50.156Z,1792
2016-08-23T07:35:50.162Z,1804
2016-08-23T07:36:50.180Z,1828
2016-08-23T07:37:50.184Z,1820
2016-08-23T07:38:50.178Z,1808
2016-08-23T07:39:51.099Z,1824
2016-08-23T07:40:50.179Z,1820
2016-08-23T07:41:50.155Z,1808
2016-08-23T07:42:50.983Z,1792
2016-08-23T07:43:50.159Z,1780
2016-08-23T07:44:50.161Z,1788
2016-08-23T07:45:50.172Z,1784
2016-08-23T07:46:50.157Z,1780
2016-08-23T07:47:50.161Z,1776
2016-08-23T07:48:50.156Z,1808
2016-08-23T07:49:50.158Z,1828
2016-08-23T07:50:50.160Z,1828
2016-08-23T07:51:50.156Z,1856
2016-08-23T07:52:50.177Z,1824
2016-08-23T07:53:50.164Z,1864
2016-08-23T07:54:50.168Z,1884
2016-08-23T07:55:50.159Z,1900
2016-08-23T07:56:51.099Z,1876
2016-08-23T07:57:50.207Z,1880
2016-08-23T07:58:50.203Z,1900
2016-08-23T07:59:50.228Z,1932
2016-08-23T08:00:50.150Z,1940
2016-08-23T08:01:50.162Z,1944
2016-08-23T08:02:50.156Z,1976
2016-08-23T08:03:50.147Z,1868
2016-08-23T08:04:50.163Z,1864
2016-08-23T08:05:50.161Z,1852
2016-08-23T08:06:50.162Z,1928
2016-08-23T08:07:51.088Z,1848
2016-08-23T08:08:50.164Z,1864
2016-08-23T08:09:50.154Z,1816
2016-08-23T08:10:50.977Z,1896
2016-08-23T08:11:50.161Z,1896
2016-08-23T08:12:50.163Z,1880
2016-08-23T08:13:50.160Z,1864
2016-08-23T08:14:50.154Z,1844
2016-08-23T08:15:50.163Z,1872
2016-08-23T08:16:50.166Z,1892
2016-08-23T08:17:50.157Z,1860
2016-08-23T08:18:50.934Z,1848
2016-08-23T08:19:50.160Z,1864
2016-08-23T08:20:50.170Z,1864
2016-08-23T08:21:50.253Z,1812
2016-08-23T08:22:50.165Z,1800
2016-08-23T08:23:50.527Z,1808
2016-08-23T08:24:50.256Z,1824
2016-08-23T08:25:50.164Z,1824
2016-08-23T08:26:50.149Z,1848
2016-08-23T08:27:50.153Z,1888
2016-08-23T08:28:51.104Z,1928
2016-08-23T08:29:50.167Z,1980
2016-08-23T08:30:50.233Z,2056
2016-08-23T08:31:51.270Z,1956
2016-08-23T08:32:51.075Z,1916
2016-08-23T08:33:50.240Z,1948
2016-08-23T08:34:50.165Z,1980
2016-08-23T08:35:50.156Z,2004
2016-08-23T08:36:50.168Z,2008
2016-08-23T08:37:50.170Z,2044
2016-08-23T08:38:50.155Z,2076
2016-08-23T08:39:50.157Z,2048
2016-08-23T08:40:50.170Z,1996
2016-08-23T08:41:50.150Z,1940
2016-08-23T08:42:50.163Z,1944
2016-08-23T08:43:50.197Z,1920
2016-08-23T08:44:50.191Z,1956
2016-08-23T08:45:50.151Z,1964
2016-08-23T08:46:50.156Z,2016
2016-08-23T08:47:50.162Z,2116
2016-08-23T08:48:50.155Z,2184
2016-08-23T08:49:50.158Z,2248
2016-08-23T08:50:50.166Z,2244
2016-08-23T08:51:50.163Z,2344
2016-08-23T08:52:50.168Z,2480
2016-08-23T08:53:50.172Z,2568
2016-08-23T08:54:50.182Z,2608
2016-08-23T08:55:50.161Z,2436
2016-08-23T08:56:50.151Z,2288
2016-08-23T08:57:50.168Z,2240
2016-08-23T08:58:50.159Z,2252
2016-08-23T08:59:50.154Z,2184
2016-08-23T09:00:50.158Z,2356
2016-08-23T09:01:50.170Z,2308
2016-08-23T09:02:50.162Z,2348
2016-08-23T09:03:50.156Z,2476
2016-08-23T09:04:50.155Z,2740
2016-08-23T09:05:50.156Z,3152
2016-08-23T09:06:50.285Z,3556
2016-08-23T09:07:50.530Z,4308
2016-08-23T09:08:50.204Z,4660
2016-08-23T09:09:50.153Z,4884
2016-08-23T09:10:50.222Z,4804
2016-08-23T09:11:50.155Z,4080
2016-08-23T09:12:50.178Z,3888
2016-08-23T09:13:50.159Z,3608
2016-08-23T09:14:50.173Z,3176
2016-08-23T09:15:50.164Z,2636
2016-08-23T09:16:50.168Z,2548
2016-08-23T09:17:51.613Z,2372
2016-08-23T09:18:50.283Z,2320
2016-08-23T09:19:50.181Z,2308
2016-08-23T09:20:50.174Z,2288
2016-08-23T09:21:50.178Z,2192
2016-08-23T09:22:50.292Z,1952
2016-08-23T09:23:51.313Z,1880
2016-08-23T09:24:51.277Z,2156
2016-08-23T09:25:50.624Z,2152
2016-08-23T09:26:50.196Z,2148
2016-08-23T09:27:50.199Z,2172
2016-08-23T09:28:50.197Z,2172
2016-08-23T09:29:51.458Z,2136
2016-08-23T09:30:50.329Z,2184
2016-08-23T09:31:50.269Z,2248
2016-08-23T09:32:50.433Z,2408
2016-08-23T09:33:50.184Z,2668
2016-08-23T09:34:50.245Z,2812
2016-08-23T09:35:50.258Z,2824
2016-08-23T09:36:51.343Z,2664
2016-08-23T09:37:50.195Z,2700
2016-08-23T09:38:50.197Z,2852
2016-08-23T09:39:50.201Z,3076
2016-08-23T09:40:50.188Z,3096
2016-08-23T09:41:50.196Z,3516
2016-08-23T09:42:50.995Z,3756
2016-08-23T09:43:50.189Z,4192
2016-08-23T09:44:50.199Z,3832
2016-08-23T09:45:52.004Z,3632
2016-08-23T09:46:50.186Z,3340
2016-08-23T09:47:50.183Z,3400
2016-08-23T09:48:50.193Z,3644
2016-08-23T09:49:50.204Z,3592
2016-08-23T09:50:50.253Z,3484
2016-08-23T09:51:50.192Z,3760
2016-08-23T09:52:50.203Z,4128
2016-08-23T09:53:50.275Z,4344
2016-08-23T09:54:52.411Z,4908
2016-08-23T09:56:05.067Z,5856
2016-08-23T09:56:50.224Z,6616
2016-08-23T09:57:50.209Z,6444
2016-08-23T09:58:50.214Z,6084
2016-08-23T09:59:50.200Z,5788
2016-08-23T10:00:50.404Z,5996
2016-08-23T10:01:50.250Z,5580
2016-08-23T10:02:50.301Z,4880
2016-08-23T10:03:50.366Z,4276
2016-08-23T10:04:50.292Z,3340
2016-08-23T10:05:50.342Z,2916
2016-08-23T10:06:50.295Z,2984
2016-08-23T10:07:50.261Z,2816
2016-08-23T10:08:50.265Z,2760
2016-08-23T10:09:50.288Z,2520
2016-08-23T10:10:50.272Z,2548
2016-08-23T10:11:50.222Z,2744
2016-08-23T10:12:50.270Z,2908
2016-08-23T10:13:51.191Z,3120
2016-08-23T10:14:51.188Z,3560
2016-08-23T10:15:50.351Z,3892
2016-08-23T10:16:50.277Z,3912
2016-08-23T10:17:50.259Z,4072
2016-08-23T10:18:50.286Z,3568
2016-08-23T10:19:50.206Z,3424
2016-08-23T10:20:50.209Z,3344
2016-08-23T10:21:50.228Z,3176
2016-08-23T10:22:50.228Z,3068
2016-08-23T10:23:50.242Z,2728
2016-08-23T10:24:50.222Z,2392
2016-08-23T10:25:50.309Z,2376
2016-08-23T10:26:50.321Z,2328
2016-08-23T10:27:50.244Z,2324
2016-08-23T10:28:50.230Z,2372
2016-08-23T10:29:50.325Z,2472
2016-08-23T10:30:50.318Z,2292
2016-08-23T10:31:50.278Z,2268
2016-08-23T10:32:50.242Z,2300
2016-08-23T10:33:50.307Z,2044
2016-08-23T10:34:50.302Z,1976
2016-08-23T10:35:50.294Z,2008
2016-08-23T10:36:50.295Z,2072
2016-08-23T10:37:50.244Z,2040
2016-08-23T10:38:50.245Z,2028
2016-08-23T10:39:50.283Z,2104
2016-08-23T10:40:50.263Z,2148
2016-08-23T10:41:50.271Z,2144
2016-08-23T10:42:50.320Z,2148
2016-08-23T10:43:51.137Z,2060
2016-08-23T10:44:51.663Z,1980
2016-08-23T10:45:50.701Z,1932
2016-08-23T10:46:50.381Z,1908
2016-08-23T10:47:50.320Z,1892
2016-08-23T10:48:50.330Z,1860
2016-08-23T10:49:50.291Z,1824
2016-08-23T10:50:50.354Z,1840
2016-08-23T10:51:50.246Z,1864
2016-08-23T10:52:50.398Z,1920
2016-08-23T10:53:50.454Z,2036
2016-08-23T10:54:51.317Z,2172
2016-08-23T10:55:50.326Z,2276
2016-08-23T10:56:50.358Z,2236
2016-08-23T10:57:50.398Z,2100
2016-08-23T10:58:51.212Z,2080
2016-08-23T10:59:50.570Z,2076
2016-08-23T11:00:50.305Z,2040
2016-08-23T11:01:51.083Z,1976
2016-08-23T11:02:50.299Z,1960
2016-08-23T11:03:50.294Z,1972
2016-08-23T11:04:50.305Z,1928
2016-08-23T11:05:50.298Z,1896
2016-08-23T11:06:52.285Z,1908
2016-08-23T11:07:51.554Z,1884
2016-08-23T11:08:51.313Z,1884
2016-08-23T11:09:50.440Z,1860
2016-08-23T11:10:50.503Z,1848
2016-08-23T11:12:50.858Z,1860
2016-08-23T11:13:51.292Z,1868
2016-08-23T11:14:50.306Z,1900
2016-08-23T11:15:51.359Z,1924
2016-08-23T11:16:50.838Z,1960
2016-08-23T11:17:50.601Z,2008
2016-08-23T11:18:50.308Z,2072
2016-08-23T11:19:50.294Z,2128
2016-08-23T11:20:50.317Z,2180
2016-08-23T11:21:50.331Z,2224
2016-08-23T11:22:50.579Z,2196
2016-08-23T11:23:50.366Z,2288
2016-08-23T11:24:51.161Z,2336
2016-08-23T11:25:50.560Z,2352
2016-08-23T11:26:50.513Z,2344
2016-08-23T11:27:51.024Z,2284
2016-08-23T11:28:52.375Z,2268
2016-08-23T11:29:50.593Z,2244
2016-08-23T11:30:51.471Z,2272
2016-08-23T11:31:50.382Z,2344
2016-08-23T11:32:50.337Z,2256
2016-08-23T11:33:50.607Z,2116
2016-08-23T11:34:50.362Z,2228
2016-08-23T11:35:50.327Z,2168
2016-08-23T11:36:50.358Z,2140
2016-08-23T11:37:50.356Z,2136
2016-08-23T11:38:50.379Z,2140
2016-08-23T11:39:50.379Z,2132
2016-08-23T11:40:50.500Z,2132
2016-08-23T11:41:50.354Z,2172
2016-08-23T11:42:50.366Z,2188
2016-08-23T11:43:50.386Z,2256
2016-08-23T11:44:50.409Z,2256
2016-08-23T11:45:52.108Z,2272
2016-08-23T11:46:50.833Z,2308
2016-08-23T11:47:50.379Z,2368
2016-08-23T11:48:53.736Z,2420
2016-08-23T11:49:51.533Z,2424
2016-08-23T11:50:51.360Z,2448
2016-08-23T11:51:50.522Z,2456
2016-08-23T11:52:50.359Z,2444
2016-08-23T11:53:50.379Z,2428
2016-08-23T11:54:50.366Z,2396
2016-08-23T11:55:50.953Z,2380
2016-08-23T11:56:51.200Z,2368
2016-08-23T11:57:50.380Z,2344
2016-08-23T11:58:52.078Z,2320
2016-08-23T11:59:50.417Z,2288
2016-08-23T12:00:50.411Z,2252
2016-08-23T12:01:50.396Z,2236
2016-08-23T12:02:50.402Z,2240
2016-08-23T12:03:50.399Z,2208
2016-08-23T12:04:50.392Z,2200
2016-08-23T12:05:50.400Z,2140
2016-08-23T12:06:50.402Z,2156
2016-08-23T12:07:50.395Z,2168
2016-08-23T12:08:50.390Z,2196
2016-08-23T12:09:50.808Z,2200
2016-08-23T12:10:52.273Z,2148
2016-08-23T12:11:50.566Z,2100
2016-08-23T12:12:50.469Z,2124
2016-08-23T12:13:50.401Z,2168
2016-08-23T12:14:50.451Z,2172
2016-08-23T12:15:50.461Z,2184
2016-08-23T12:16:50.461Z,2196
2016-08-23T12:17:51.144Z,2180
2016-08-23T12:18:50.407Z,2232
2016-08-23T12:19:50.443Z,2228
2016-08-23T12:20:50.450Z,2188
2016-08-23T12:21:50.457Z,2124
2016-08-23T12:22:50.411Z,2092
2016-08-23T12:23:50.448Z,2072
2016-08-23T12:24:50.423Z,1996
2016-08-23T12:25:50.441Z,1984
2016-08-23T12:26:50.434Z,1980
2016-08-23T12:27:50.472Z,1960
2016-08-23T12:28:50.450Z,1988
2016-08-23T12:29:50.485Z,2000
2016-08-23T12:30:50.451Z,2056
2016-08-23T12:31:50.427Z,2128
2016-08-23T12:32:50.439Z,2168
2016-08-23T12:33:51.417Z,2184
2016-08-23T12:34:50.803Z,2184
2016-08-23T12:35:50.457Z,2156
2016-08-23T12:36:50.463Z,2040
2016-08-23T12:37:50.851Z,1984
2016-08-23T12:38:50.952Z,2004
2016-08-23T12:39:52.823Z,1892
2016-08-23T12:40:50.438Z,1804
2016-08-23T12:41:50.466Z,1804
2016-08-23T12:42:50.468Z,1776
2016-08-23T12:43:50.473Z,1752
2016-08-23T12:44:51.169Z,1784
2016-08-23T12:45:50.478Z,1764
2016-08-23T12:46:50.493Z,1792
2016-08-23T12:47:50.522Z,1808
2016-08-23T12:48:50.483Z,1828
2016-08-23T12:49:50.461Z,1836
2016-08-23T12:50:50.470Z,1844
2016-08-23T12:51:50.504Z,1844
2016-08-23T12:52:50.551Z,1832
2016-08-23T12:53:50.486Z,1828
2016-08-23T12:54:50.932Z,1824
2016-08-23T12:55:50.478Z,1828
2016-08-23T12:56:50.506Z,1804
2016-08-23T12:57:50.537Z,1836
2016-08-23T12:58:50.517Z,1848
2016-08-23T12:59:50.471Z,1836
2016-08-23T13:00:50.478Z,1852
2016-08-23T13:01:50.966Z,1856
2016-08-23T13:02:52.227Z,1856
2016-08-23T13:03:52.242Z,1852
2016-08-23T13:04:51.247Z,1848
2016-08-23T13:05:51.215Z,1832
2016-08-23T13:06:50.682Z,1820
2016-08-23T13:07:50.674Z,1852
2016-08-23T13:08:50.676Z,1880
2016-08-23T13:09:50.654Z,1884
2016-08-23T13:10:51.259Z,1892
2016-08-23T13:11:53.280Z,1896
2016-08-23T13:12:50.682Z,1888
2016-08-23T13:13:50.673Z,1900
2016-08-23T13:14:50.803Z,1900
2016-08-23T13:15:53.346Z,1904
2016-08-23T13:16:53.275Z,1928
2016-08-23T13:17:50.686Z,1928
2016-08-23T13:18:50.824Z,1924
2016-08-23T13:19:50.720Z,1932
2016-08-23T13:20:50.672Z,1964
2016-08-23T13:21:53.265Z,1956
2016-08-23T13:23:06.650Z,1940
2016-08-23T13:23:53.162Z,1912
2016-08-23T13:25:07.279Z,1888
2016-08-23T13:25:53.595Z,1896
2016-08-23T13:26:50.670Z,1888
2016-08-23T13:27:50.675Z,1876
2016-08-23T13:28:50.805Z,1860
2016-08-23T13:29:52.358Z,1808
2016-08-23T13:30:51.031Z,1732
2016-08-23T13:31:51.536Z,1696
2016-08-23T13:32:50.851Z,1712
2016-08-23T13:33:51.022Z,1744
2016-08-23T13:34:50.914Z,1820
2016-08-23T13:35:52.283Z,1868
2016-08-23T13:36:50.831Z,1928
2016-08-23T13:37:50.824Z,1948
2016-08-23T13:38:51.007Z,1944
2016-08-23T13:39:50.801Z,1964
2016-08-23T13:40:50.846Z,1988
2016-08-23T13:41:51.552Z,2056
2016-08-23T13:42:53.169Z,2112
2016-08-23T13:43:53.154Z,2128
2016-08-23T13:44:51.721Z,2212
2016-08-23T13:45:51.751Z,2252
2016-08-23T13:46:51.823Z,2252